sensor_id;sensor_type;location;lat;lon;timestamp;pressure;altitude;pressure_sealevel;temperature;humidity
16100;BME280;8154;50.830;12.082;2022-09-01T00:00:58;99933.81;;;24.99;39.52
16100;BME280;8154;50.830;12.082;2022-09-01T00:03:43;99938.06;;;24.94;39.17
16100;BME280;8154;50.830;12.082;2022-09-01T00:06:32;99926.31;;;24.88;39.64
16100;BME280;8154;50.830;12.082;2022-09-01T00:09:18;99923.44;;;24.90;39.20
16100;BME280;8154;50.830;12.082;2022-09-01T00:12:05;99930.63;;;24.89;39.61
16100;BME280;8154;50.830;12.082;2022-09-01T00:14:50;99926.56;;;24.93;39.48
16100;BME280;8154;50.830;12.082;2022-09-01T00:17:34;99932.31;;;24.90;39.42
16100;BME280;8154;50.830;12.082;2022-09-01T00:20:19;99925.75;;;24.93;39.45
16100;BME280;8154;50.830;12.082;2022-09-01T00:23:03;99926.56;;;24.93;39.17
16100;BME280;8154;50.830;12.082;2022-09-01T00:25:47;99925.09;;;24.91;39.33
16100;BME280;8154;50.830;12.082;2022-09-01T00:28:33;99936.44;;;24.93;39.37
16100;BME280;8154;50.830;12.082;2022-09-01T00:31:18;99930.44;;;24.91;39.33
16100;BME280;8154;50.830;12.082;2022-09-01T00:34:03;99934.59;;;24.93;39.02
16100;BME280;8154;50.830;12.082;2022-09-01T00:36:48;99942.16;;;24.90;39.25
16100;BME280;8154;50.830;12.082;2022-09-01T00:39:32;99926.50;;;24.87;39.06
16100;BME280;8154;50.830;12.082;2022-09-01T00:42:16;99930.22;;;24.86;39.43
16100;BME280;8154;50.830;12.082;2022-09-01T00:45:01;99942.09;;;24.83;39.16
16100;BME280;8154;50.830;12.082;2022-09-01T00:47:46;99941.09;;;24.84;39.47
16100;BME280;8154;50.830;12.082;2022-09-01T00:50:31;99941.69;;;24.80;39.11
16100;BME280;8154;50.830;12.082;2022-09-01T00:53:15;99947.84;;;24.80;39.52
16100;BME280;8154;50.830;12.082;2022-09-01T00:56:00;99939.00;;;24.80;39.53
16100;BME280;8154;50.830;12.082;2022-09-01T00:58:45;99945.75;;;24.76;39.59
16100;BME280;8154;50.830;12.082;2022-09-01T01:01:29;99937.06;;;24.74;39.63
16100;BME280;8154;50.830;12.082;2022-09-01T01:04:14;99935.25;;;24.74;39.04
16100;BME280;8154;50.830;12.082;2022-09-01T01:06:59;99938.19;;;24.79;39.53
16100;BME280;8154;50.830;12.082;2022-09-01T01:09:47;99937.16;;;24.80;39.34
16100;BME280;8154;50.830;12.082;2022-09-01T01:12:32;99943.78;;;24.84;38.96
16100;BME280;8154;50.830;12.082;2022-09-01T01:15:21;99934.84;;;24.77;39.48
16100;BME280;8154;50.830;12.082;2022-09-01T01:18:05;99934.06;;;24.77;39.33
16100;BME280;8154;50.830;12.082;2022-09-01T01:21:14;99930.16;;;24.79;39.28
16100;BME280;8154;50.830;12.082;2022-09-01T01:24:32;99933.88;;;24.78;39.01
16100;BME280;8154;50.830;12.082;2022-09-01T01:27:17;99935.50;;;24.79;38.96
16100;BME280;8154;50.830;12.082;2022-09-01T01:30:05;99946.78;;;24.75;39.09
16100;BME280;8154;50.830;12.082;2022-09-01T01:32:52;99931.94;;;24.72;39.21
16100;BME280;8154;50.830;12.082;2022-09-01T01:35:40;99940.97;;;24.71;39.18
16100;BME280;8154;50.830;12.082;2022-09-01T01:38:26;99935.81;;;24.70;39.24
16100;BME280;8154;50.830;12.082;2022-09-01T01:41:12;99939.34;;;24.70;39.20
16100;BME280;8154;50.830;12.082;2022-09-01T01:43:58;99938.03;;;24.66;38.89
16100;BME280;8154;50.830;12.082;2022-09-01T01:46:47;99942.38;;;24.67;39.18
16100;BME280;8154;50.830;12.082;2022-09-01T01:49:33;99938.69;;;24.68;38.86
16100;BME280;8154;50.830;12.082;2022-09-01T01:52:18;99936.84;;;24.69;38.81
16100;BME280;8154;50.830;12.082;2022-09-01T01:55:03;99933.34;;;24.68;38.90
16100;BME280;8154;50.830;12.082;2022-09-01T01:57:54;99941.91;;;24.64;38.96
16100;BME280;8154;50.830;12.082;2022-09-01T02:00:40;99935.72;;;24.63;39.14
16100;BME280;8154;50.830;12.082;2022-09-01T02:03:31;99932.69;;;24.66;39.09
16100;BME280;8154;50.830;12.082;2022-09-01T02:06:23;99937.78;;;24.61;39.00
16100;BME280;8154;50.830;12.082;2022-09-01T02:09:07;99930.16;;;24.58;38.83
16100;BME280;8154;50.830;12.082;2022-09-01T02:11:52;99928.47;;;24.57;38.59
16100;BME280;8154;50.830;12.082;2022-09-01T02:14:39;99931.34;;;24.56;38.72
16100;BME280;8154;50.830;12.082;2022-09-01T02:17:24;99931.97;;;24.58;38.66
16100;BME280;8154;50.830;12.082;2022-09-01T02:20:10;99928.47;;;24.57;38.90
16100;BME280;8154;50.830;12.082;2022-09-01T02:22:55;99923.50;;;24.54;38.79
16100;BME280;8154;50.830;12.082;2022-09-01T02:25:42;99921.03;;;24.53;38.55
16100;BME280;8154;50.830;12.082;2022-09-01T02:28:30;99915.88;;;24.51;38.75
16100;BME280;8154;50.830;12.082;2022-09-01T02:31:15;99915.22;;;24.49;38.43
16100;BME280;8154;50.830;12.082;2022-09-01T02:34:05;99922.25;;;24.50;38.48
16100;BME280;8154;50.830;12.082;2022-09-01T02:36:55;99924.53;;;24.53;38.61
16100;BME280;8154;50.830;12.082;2022-09-01T02:39:39;99927.59;;;24.50;38.33
16100;BME280;8154;50.830;12.082;2022-09-01T02:42:24;99918.75;;;24.50;38.14
16100;BME280;8154;50.830;12.082;2022-09-01T02:45:12;99914.44;;;24.49;38.38
16100;BME280;8154;50.830;12.082;2022-09-01T02:47:58;99919.13;;;24.47;38.35
16100;BME280;8154;50.830;12.082;2022-09-01T02:50:43;99923.63;;;24.46;38.37
16100;BME280;8154;50.830;12.082;2022-09-01T02:53:29;99916.00;;;24.43;38.28
16100;BME280;8154;50.830;12.082;2022-09-01T02:56:14;99920.34;;;24.44;38.32
16100;BME280;8154;50.830;12.082;2022-09-01T02:58:59;99911.69;;;24.42;38.37
16100;BME280;8154;50.830;12.082;2022-09-01T03:01:44;99917.22;;;24.41;38.29
16100;BME280;8154;50.830;12.082;2022-09-01T03:04:29;99919.91;;;24.41;38.32
16100;BME280;8154;50.830;12.082;2022-09-01T03:07:16;99915.72;;;24.38;38.25
16100;BME280;8154;50.830;12.082;2022-09-01T03:10:01;99914.75;;;24.39;38.08
16100;BME280;8154;50.830;12.082;2022-09-01T03:12:46;99923.59;;;24.40;38.03
16100;BME280;8154;50.830;12.082;2022-09-01T03:15:30;99915.13;;;24.36;38.17
16100;BME280;8154;50.830;12.082;2022-09-01T03:18:17;99914.28;;;24.36;38.03
16100;BME280;8154;50.830;12.082;2022-09-01T03:21:02;99916.75;;;24.37;38.10
16100;BME280;8154;50.830;12.082;2022-09-01T03:23:49;99920.66;;;24.35;37.81
16100;BME280;8154;50.830;12.082;2022-09-01T03:26:34;99911.81;;;24.34;38.04
16100;BME280;8154;50.830;12.082;2022-09-01T03:29:19;99915.50;;;24.33;37.90
16100;BME280;8154;50.830;12.082;2022-09-01T03:32:04;99913.81;;;24.32;38.06
16100;BME280;8154;50.830;12.082;2022-09-01T03:34:48;99914.66;;;24.33;37.98
16100;BME280;8154;50.830;12.082;2022-09-01T03:37:34;99909.31;;;24.33;37.87
16100;BME280;8154;50.830;12.082;2022-09-01T03:40:20;99916.31;;;24.33;37.66
16100;BME280;8154;50.830;12.082;2022-09-01T03:43:06;99914.22;;;24.29;37.79
16100;BME280;8154;50.830;12.082;2022-09-01T03:45:57;99916.50;;;24.32;37.52
16100;BME280;8154;50.830;12.082;2022-09-01T03:48:45;99914.03;;;24.30;37.53
16100;BME280;8154;50.830;12.082;2022-09-01T03:51:32;99914.41;;;24.27;37.76
16100;BME280;8154;50.830;12.082;2022-09-01T03:54:16;99919.75;;;24.27;37.60
16100;BME280;8154;50.830;12.082;2022-09-01T03:57:01;99921.22;;;24.30;37.80
16100;BME280;8154;50.830;12.082;2022-09-01T03:59:48;99929.44;;;24.28;37.45
16100;BME280;8154;50.830;12.082;2022-09-01T04:02:33;99923.25;;;24.28;37.53
16100;BME280;8154;50.830;12.082;2022-09-01T04:05:18;99934.13;;;24.26;37.51
16100;BME280;8154;50.830;12.082;2022-09-01T04:08:07;99921.53;;;24.20;37.83
16100;BME280;8154;50.830;12.082;2022-09-01T04:10:53;99923.38;;;24.20;37.94
16100;BME280;8154;50.830;12.082;2022-09-01T04:13:39;99918.22;;;24.18;37.63
16100;BME280;8154;50.830;12.082;2022-09-01T04:16:32;99925.16;;;24.13;37.68
16100;BME280;8154;50.830;12.082;2022-09-01T04:19:36;99926.97;;;24.12;37.91
16100;BME280;8154;50.830;12.082;2022-09-01T04:22:22;99920.56;;;24.07;38.03
16100;BME280;8154;50.830;12.082;2022-09-01T04:25:13;99922.78;;;24.03;37.94
16100;BME280;8154;50.830;12.082;2022-09-01T04:27:59;99916.13;;;23.99;37.93
16100;BME280;8154;50.830;12.082;2022-09-01T04:30:56;99924.53;;;23.96;37.99
16100;BME280;8154;50.830;12.082;2022-09-01T04:33:41;99926.38;;;23.96;38.04
16100;BME280;8154;50.830;12.082;2022-09-01T04:36:29;99930.00;;;23.95;38.02
16100;BME280;8154;50.830;12.082;2022-09-01T04:39:16;99922.19;;;23.93;38.10
16100;BME280;8154;50.830;12.082;2022-09-01T04:42:01;99928.56;;;23.92;38.12
16100;BME280;8154;50.830;12.082;2022-09-01T04:44:52;99925.06;;;23.92;37.92
16100;BME280;8154;50.830;12.082;2022-09-01T04:47:38;99932.06;;;23.93;38.16
16100;BME280;8154;50.830;12.082;2022-09-01T04:50:25;99931.22;;;23.92;38.18
16100;BME280;8154;50.830;12.082;2022-09-01T04:53:14;99933.91;;;23.92;38.37
16100;BME280;8154;50.830;12.082;2022-09-01T04:56:04;99927.91;;;23.90;38.03
16100;BME280;8154;50.830;12.082;2022-09-01T04:58:50;99931.59;;;23.89;38.33
16100;BME280;8154;50.830;12.082;2022-09-01T05:01:35;99930.94;;;23.87;38.30
16100;BME280;8154;50.830;12.082;2022-09-01T05:04:30;99926.63;;;23.86;38.40
16100;BME280;8154;50.830;12.082;2022-09-01T05:07:16;99941.00;;;23.85;38.11
16100;BME280;8154;50.830;12.082;2022-09-01T05:10:01;99942.84;;;23.85;38.04
16100;BME280;8154;50.830;12.082;2022-09-01T05:12:45;99944.50;;;23.86;38.18
16100;BME280;8154;50.830;12.082;2022-09-01T05:15:29;99938.16;;;23.87;38.34
16100;BME280;8154;50.830;12.082;2022-09-01T05:18:18;99938.34;;;23.85;38.27
16100;BME280;8154;50.830;12.082;2022-09-01T05:21:07;99951.50;;;23.87;38.56
16100;BME280;8154;50.830;12.082;2022-09-01T05:23:56;99933.81;;;23.86;38.28
16100;BME280;8154;50.830;12.082;2022-09-01T05:26:42;99933.16;;;23.84;38.41
16100;BME280;8154;50.830;12.082;2022-09-01T05:29:27;99928.47;;;23.86;38.55
16100;BME280;8154;50.830;12.082;2022-09-01T05:32:12;99931.97;;;23.86;38.54
16100;BME280;8154;50.830;12.082;2022-09-01T05:34:56;99933.81;;;23.86;38.51
16100;BME280;8154;50.830;12.082;2022-09-01T05:37:42;99942.84;;;23.85;38.66
16100;BME280;8154;50.830;12.082;2022-09-01T05:40:26;99938.16;;;23.87;38.38
16100;BME280;8154;50.830;12.082;2022-09-01T05:43:12;99941.91;;;23.92;38.50
16100;BME280;8154;50.830;12.082;2022-09-01T05:45:58;99939.88;;;23.94;38.30
16100;BME280;8154;50.830;12.082;2022-09-01T05:48:46;99951.56;;;23.93;38.40
16100;BME280;8154;50.830;12.082;2022-09-01T05:51:32;99934.75;;;23.93;38.31
16100;BME280;8154;50.830;12.082;2022-09-01T05:54:21;99940.53;;;23.96;38.67
16100;BME280;8154;50.830;12.082;2022-09-01T05:57:08;99938.53;;;23.98;38.20
16100;BME280;8154;50.830;12.082;2022-09-01T05:59:52;99938.72;;;23.97;38.62
16100;BME280;8154;50.830;12.082;2022-09-01T06:02:37;99938.34;;;24.00;38.57
16100;BME280;8154;50.830;12.082;2022-09-01T06:05:22;99935.84;;;23.98;38.22
16100;BME280;8154;50.830;12.082;2022-09-01T06:08:09;99944.50;;;24.00;38.58
16100;BME280;8154;50.830;12.082;2022-09-01T06:10:57;99937.97;;;24.03;38.17
16100;BME280;8154;50.830;12.082;2022-09-01T06:13:41;99946.63;;;24.05;38.25
16100;BME280;8154;50.830;12.082;2022-09-01T06:16:26;99942.91;;;24.06;38.40
16100;BME280;8154;50.830;12.082;2022-09-01T06:19:11;99944.59;;;24.07;38.41
16100;BME280;8154;50.830;12.082;2022-09-01T06:21:55;99946.44;;;24.06;38.60
16100;BME280;8154;50.830;12.082;2022-09-01T06:24:40;99947.69;;;24.10;38.37
16100;BME280;8154;50.830;12.082;2022-09-01T06:27:25;99948.53;;;24.11;38.43
16100;BME280;8154;50.830;12.082;2022-09-01T06:30:12;99951.00;;;24.12;38.44
16100;BME280;8154;50.830;12.082;2022-09-01T06:33:02;99950.63;;;24.15;38.43
16100;BME280;8154;50.830;12.082;2022-09-01T06:35:48;99953.78;;;24.19;38.12
16100;BME280;8154;50.830;12.082;2022-09-01T06:38:32;99948.44;;;24.19;38.04
16100;BME280;8154;50.830;12.082;2022-09-01T06:41:16;99950.53;;;24.23;38.10
16100;BME280;8154;50.830;12.082;2022-09-01T06:44:02;99946.03;;;24.24;38.20
16100;BME280;8154;50.830;12.082;2022-09-01T06:46:48;99954.28;;;24.29;38.14
16100;BME280;8154;50.830;12.082;2022-09-01T06:49:32;99952.25;;;24.31;38.15
16100;BME280;8154;50.830;12.082;2022-09-01T06:52:17;99962.75;;;24.33;38.05
16100;BME280;8154;50.830;12.082;2022-09-01T06:55:03;99959.88;;;24.34;38.01
16100;BME280;8154;50.830;12.082;2022-09-01T06:57:48;99953.97;;;24.39;37.88
16100;BME280;8154;50.830;12.082;2022-09-01T07:00:35;99953.59;;;24.42;37.79
16100;BME280;8154;50.830;12.082;2022-09-01T07:03:24;99962.25;;;24.44;37.96
16100;BME280;8154;50.830;12.082;2022-09-01T07:06:10;99967.22;;;24.47;37.69
16100;BME280;8154;50.830;12.082;2022-09-01T07:08:57;99958.81;;;24.50;37.90
16100;BME280;8154;50.830;12.082;2022-09-01T07:11:42;99967.09;;;24.55;37.55
16100;BME280;8154;50.830;12.082;2022-09-01T07:14:26;99967.09;;;24.55;37.92
16100;BME280;8154;50.830;12.082;2022-09-01T07:17:10;99968.56;;;24.57;37.73
16100;BME280;8154;50.830;12.082;2022-09-01T07:19:54;99962.84;;;24.60;37.80
16100;BME280;8154;50.830;12.082;2022-09-01T07:22:39;99960.63;;;24.64;38.03
16100;BME280;8154;50.830;12.082;2022-09-01T07:25:23;99957.94;;;24.64;37.71
16100;BME280;8154;50.830;12.082;2022-09-01T07:28:09;99967.06;;;24.69;37.59
16100;BME280;8154;50.830;12.082;2022-09-01T07:30:55;99964.66;;;24.74;37.65
16100;BME280;8154;50.830;12.082;2022-09-01T07:33:40;99965.94;;;24.78;37.56
16100;BME280;8154;50.830;12.082;2022-09-01T07:36:25;99971.09;;;24.80;37.47
16100;BME280;8154;50.830;12.082;2022-09-01T07:39:11;99969.88;;;24.82;37.62
16100;BME280;8154;50.830;12.082;2022-09-01T07:41:56;99969.28;;;24.87;37.71
16100;BME280;8154;50.830;12.082;2022-09-01T07:44:41;99965.41;;;24.89;37.69
16100;BME280;8154;50.830;12.082;2022-09-01T07:47:25;99965.00;;;24.92;37.27
16100;BME280;8154;50.830;12.082;2022-09-01T07:50:13;99971.00;;;24.94;37.67
16100;BME280;8154;50.830;12.082;2022-09-01T07:52:58;99968.13;;;24.96;37.26
16100;BME280;8154;50.830;12.082;2022-09-01T07:55:45;99961.16;;;24.95;37.44
16100;BME280;8154;50.830;12.082;2022-09-01T07:58:29;99968.38;;;25.01;37.64
16100;BME280;8154;50.830;12.082;2022-09-01T08:01:19;99976.41;;;25.01;37.60
16100;BME280;8154;50.830;12.082;2022-09-01T08:04:04;99971.13;;;25.07;37.02
16100;BME280;8154;50.830;12.082;2022-09-01T08:06:48;99972.13;;;25.06;37.15
16100;BME280;8154;50.830;12.082;2022-09-01T08:09:35;99975.63;;;25.07;37.20
16100;BME280;8154;50.830;12.082;2022-09-01T08:12:20;99972.78;;;25.08;37.25
16100;BME280;8154;50.830;12.082;2022-09-01T08:15:06;99976.91;;;25.11;37.31
16100;BME280;8154;50.830;12.082;2022-09-01T08:17:51;99986.41;;;25.13;37.47
16100;BME280;8154;50.830;12.082;2022-09-01T08:20:38;99977.72;;;25.11;37.51
16100;BME280;8154;50.830;12.082;2022-09-01T08:23:24;99974.03;;;25.12;37.16
16100;BME280;8154;50.830;12.082;2022-09-01T08:26:15;99979.03;;;25.15;37.40
16100;BME280;8154;50.830;12.082;2022-09-01T08:29:00;99973.66;;;25.15;37.20
16100;BME280;8154;50.830;12.082;2022-09-01T08:31:47;99972.00;;;25.14;37.30
16100;BME280;8154;50.830;12.082;2022-09-01T08:34:33;99976.53;;;25.14;37.55
16100;BME280;8154;50.830;12.082;2022-09-01T08:37:18;99973.22;;;25.12;37.45
16100;BME280;8154;50.830;12.082;2022-09-01T08:40:05;99977.34;;;25.14;37.32
16100;BME280;8154;50.830;12.082;2022-09-01T08:45:56;99969.56;;;25.19;37.21
16100;BME280;8154;50.830;12.082;2022-09-01T08:48:45;99967.53;;;25.21;37.08
16100;BME280;8154;50.830;12.082;2022-09-01T08:57:49;99974.53;;;25.22;37.18
16100;BME280;8154;50.830;12.082;2022-09-01T09:00:41;99972.88;;;25.21;37.67
16100;BME280;8154;50.830;12.082;2022-09-01T09:09:41;99970.44;;;25.26;37.45
16100;BME280;8154;50.830;12.082;2022-09-01T09:15:43;99971.72;;;25.30;37.13
16100;BME280;8154;50.830;12.082;2022-09-01T09:18:50;99969.03;;;25.30;37.15
16100;BME280;8154;50.830;12.082;2022-09-01T09:21:38;99977.72;;;25.32;37.04
16100;BME280;8154;50.830;12.082;2022-09-01T09:30:04;99969.31;;;25.35;36.46
16100;BME280;8154;50.830;12.082;2022-09-01T09:35:43;99965.81;;;25.35;36.52
16100;BME280;8154;50.830;12.082;2022-09-01T09:38:28;99964.78;;;25.36;36.28
16100;BME280;8154;50.830;12.082;2022-09-01T09:41:20;99960.81;;;25.32;36.05
16100;BME280;8154;50.830;12.082;2022-09-01T09:44:18;99961.28;;;25.35;36.34
16100;BME280;8154;50.830;12.082;2022-09-01T09:47:04;99965.16;;;25.33;35.92
16100;BME280;8154;50.830;12.082;2022-09-01T09:50:22;99956.94;;;25.34;35.79
16100;BME280;8154;50.830;12.082;2022-09-01T09:56:21;99959.44;;;25.36;35.56
16100;BME280;8154;50.830;12.082;2022-09-01T09:59:29;99953.25;;;25.35;35.41
16100;BME280;8154;50.830;12.082;2022-09-01T10:02:33;99955.94;;;25.35;35.54
16100;BME280;8154;50.830;12.082;2022-09-01T10:05:42;99947.91;;;25.35;35.56
16100;BME280;8154;50.830;12.082;2022-09-01T10:11:30;99957.97;;;25.33;35.49
16100;BME280;8154;50.830;12.082;2022-09-01T10:14:19;99955.47;;;25.32;35.46
16100;BME280;8154;50.830;12.082;2022-09-01T10:17:10;99952.34;;;25.28;35.60
16100;BME280;8154;50.830;12.082;2022-09-01T10:19:59;99948.63;;;25.29;35.55
16100;BME280;8154;50.830;12.082;2022-09-01T10:22:49;99949.88;;;25.27;35.26
16100;BME280;8154;50.830;12.082;2022-09-01T10:25:33;99948.41;;;25.24;35.22
16100;BME280;8154;50.830;12.082;2022-09-01T10:28:20;99944.72;;;25.25;34.79
16100;BME280;8154;50.830;12.082;2022-09-01T10:31:07;99948.41;;;25.24;34.90
16100;BME280;8154;50.830;12.082;2022-09-01T10:33:51;99943.25;;;25.23;34.67
16100;BME280;8154;50.830;12.082;2022-09-01T10:36:37;99941.59;;;25.22;34.56
16100;BME280;8154;50.830;12.082;2022-09-01T10:39:22;99940.19;;;25.26;34.15
16100;BME280;8154;50.830;12.082;2022-09-01T10:42:16;99942.22;;;25.24;34.65
16100;BME280;8154;50.830;12.082;2022-09-01T10:45:01;99934.78;;;25.19;34.39
16100;BME280;8154;50.830;12.082;2022-09-01T10:47:46;99933.94;;;25.19;34.75
16100;BME280;8154;50.830;12.082;2022-09-01T10:50:31;99943.22;;;25.16;34.77
16100;BME280;8154;50.830;12.082;2022-09-01T11:07:35;99932.25;;;25.11;33.72
16100;BME280;8154;50.830;12.082;2022-09-01T11:10:32;99932.44;;;25.10;33.37
16100;BME280;8154;50.830;12.082;2022-09-01T11:16:27;99929.59;;;25.11;33.34
16100;BME280;8154;50.830;12.082;2022-09-01T11:19:32;99925.72;;;25.14;33.00
16100;BME280;8154;50.830;12.082;2022-09-01T11:31:22;99919.66;;;25.05;33.00
16100;BME280;8154;50.830;12.082;2022-09-01T11:34:14;99926.25;;;25.03;32.68
16100;BME280;8154;50.830;12.082;2022-09-01T11:36:59;99934.88;;;25.05;32.67
16100;BME280;8154;50.830;12.082;2022-09-01T11:39:48;99918.41;;;25.01;32.57
16100;BME280;8154;50.830;12.082;2022-09-01T11:42:37;99911.41;;;25.00;32.80
16100;BME280;8154;50.830;12.082;2022-09-01T11:45:28;99912.22;;;25.01;32.66
16100;BME280;8154;50.830;12.082;2022-09-01T11:48:16;99916.75;;;25.00;32.67
16100;BME280;8154;50.830;12.082;2022-09-01T11:51:02;99925.41;;;25.02;32.30
16100;BME280;8154;50.830;12.082;2022-09-01T11:53:48;99917.97;;;24.98;32.32
16100;BME280;8154;50.830;12.082;2022-09-01T11:56:34;99912.81;;;24.96;32.31
16100;BME280;8154;50.830;12.082;2022-09-01T11:59:32;99915.28;;;24.98;32.31
16100;BME280;8154;50.830;12.082;2022-09-01T12:02:24;99910.59;;;25.00;32.36
16100;BME280;8154;50.830;12.082;2022-09-01T12:05:29;99907.72;;;25.01;32.35
16100;BME280;8154;50.830;12.082;2022-09-01T12:08:17;99905.44;;;24.98;32.34
16100;BME280;8154;50.830;12.082;2022-09-01T12:11:03;99905.81;;;24.95;32.57
16100;BME280;8154;50.830;12.082;2022-09-01T12:14:02;99896.31;;;24.93;32.67
16100;BME280;8154;50.830;12.082;2022-09-01T12:16:59;99902.31;;;24.95;32.87
16100;BME280;8154;50.830;12.082;2022-09-01T12:19:45;99907.06;;;24.99;32.82
16100;BME280;8154;50.830;12.082;2022-09-01T12:22:29;99906.81;;;24.94;33.11
16100;BME280;8154;50.830;12.082;2022-09-01T12:25:24;99899.84;;;24.93;32.97
16100;BME280;8154;50.830;12.082;2022-09-01T12:28:08;99906.00;;;24.94;33.16
16100;BME280;8154;50.830;12.082;2022-09-01T12:30:54;99898.34;;;24.91;33.36
16100;BME280;8154;50.830;12.082;2022-09-01T12:33:41;99901.22;;;24.89;33.35
16100;BME280;8154;50.830;12.082;2022-09-01T12:36:28;99906.19;;;24.92;33.61
16100;BME280;8154;50.830;12.082;2022-09-01T12:45:11;99905.44;;;24.98;33.41
16100;BME280;8154;50.830;12.082;2022-09-01T12:47:56;99904.78;;;24.96;33.50
16100;BME280;8154;50.830;12.082;2022-09-01T12:50:42;99901.94;;;24.98;33.38
16100;BME280;8154;50.830;12.082;2022-09-01T12:53:30;99905.63;;;24.97;33.01
16100;BME280;8154;50.830;12.082;2022-09-01T12:56:18;99901.09;;;24.97;32.86
16100;BME280;8154;50.830;12.082;2022-09-01T12:59:11;99894.75;;;24.98;33.07
16100;BME280;8154;50.830;12.082;2022-09-01T13:01:56;99900.28;;;24.97;32.83
16100;BME280;8154;50.830;12.082;2022-09-01T13:04:41;99900.63;;;24.94;33.15
16100;BME280;8154;50.830;12.082;2022-09-01T13:07:25;99898.41;;;24.97;33.00
16100;BME280;8154;50.830;12.082;2022-09-01T13:10:09;99887.91;;;24.96;32.91
16100;BME280;8154;50.830;12.082;2022-09-01T13:12:54;99886.47;;;24.93;32.84
16100;BME280;8154;50.830;12.082;2022-09-01T13:15:43;99886.47;;;24.93;32.80
16100;BME280;8154;50.830;12.082;2022-09-01T13:18:30;99882.16;;;24.99;32.32
16100;BME280;8154;50.830;12.082;2022-09-01T13:21:15;99880.53;;;24.98;32.58
16100;BME280;8154;50.830;12.082;2022-09-01T13:24:03;99881.75;;;24.95;32.25
16100;BME280;8154;50.830;12.082;2022-09-01T13:26:48;99877.22;;;24.96;32.07
16100;BME280;8154;50.830;12.082;2022-09-01T13:29:38;99883.78;;;24.93;32.71
16100;BME280;8154;50.830;12.082;2022-09-01T13:32:23;99871.41;;;24.92;32.12
16100;BME280;8154;50.830;12.082;2022-09-01T13:35:08;99873.75;;;24.95;31.91
16100;BME280;8154;50.830;12.082;2022-09-01T13:37:52;99880.09;;;24.94;31.72
16100;BME280;8154;50.830;12.082;2022-09-01T13:40:36;99872.25;;;24.93;31.82
16100;BME280;8154;50.830;12.082;2022-09-01T13:43:22;99868.34;;;24.89;31.99
16100;BME280;8154;50.830;12.082;2022-09-01T13:46:07;99871.00;;;24.89;32.08
16100;BME280;8154;50.830;12.082;2022-09-01T13:48:51;99871.81;;;24.89;31.26
16100;BME280;8154;50.830;12.082;2022-09-01T13:51:35;99868.13;;;24.90;31.58
16100;BME280;8154;50.830;12.082;2022-09-01T13:54:28;99866.47;;;24.89;31.49
16100;BME280;8154;50.830;12.082;2022-09-01T13:57:12;99858.84;;;24.86;31.51
16100;BME280;8154;50.830;12.082;2022-09-01T13:59:58;99867.06;;;24.85;31.72
16100;BME280;8154;50.830;12.082;2022-09-01T14:02:44;99863.19;;;24.87;31.57
16100;BME280;8154;50.830;12.082;2022-09-01T14:05:35;99860.69;;;24.86;31.92
16100;BME280;8154;50.830;12.082;2022-09-01T14:08:21;99868.72;;;24.86;31.96
16100;BME280;8154;50.830;12.082;2022-09-01T14:11:07;99861.50;;;24.86;31.73
16100;BME280;8154;50.830;12.082;2022-09-01T14:13:52;99859.88;;;24.85;31.50
16100;BME280;8154;50.830;12.082;2022-09-01T14:16:37;99862.53;;;24.85;31.86
16100;BME280;8154;50.830;12.082;2022-09-01T14:19:21;99860.91;;;24.84;31.51
16100;BME280;8154;50.830;12.082;2022-09-01T14:22:06;99856.56;;;24.83;31.61
16100;BME280;8154;50.830;12.082;2022-09-01T14:24:50;99853.06;;;24.83;31.45
16100;BME280;8154;50.830;12.082;2022-09-01T14:27:35;99854.06;;;24.82;31.55
16100;BME280;8154;50.830;12.082;2022-09-01T14:30:22;99851.00;;;24.85;31.18
16100;BME280;8154;50.830;12.082;2022-09-01T14:33:08;99856.16;;;24.86;31.23
16100;BME280;8154;50.830;12.082;2022-09-01T14:35:52;99846.69;;;24.84;31.52
16100;BME280;8154;50.830;12.082;2022-09-01T14:38:38;99844.66;;;24.86;31.36
16100;BME280;8154;50.830;12.082;2022-09-01T14:41:23;99850.78;;;24.80;31.00
16100;BME280;8154;50.830;12.082;2022-09-01T14:44:08;99845.66;;;24.85;30.86
16100;BME280;8154;50.830;12.082;2022-09-01T14:46:52;99852.69;;;24.86;30.72
16100;BME280;8154;50.830;12.082;2022-09-01T14:49:37;99853.69;;;24.85;30.25
16100;BME280;8154;50.830;12.082;2022-09-01T14:52:22;99848.78;;;24.88;30.46
16100;BME280;8154;50.830;12.082;2022-09-01T14:55:06;99852.91;;;24.91;30.15
16100;BME280;8154;50.830;12.082;2022-09-01T14:57:51;99843.88;;;24.92;29.39
16100;BME280;8154;50.830;12.082;2022-09-01T15:00:35;99845.91;;;24.90;30.23
16100;BME280;8154;50.830;12.082;2022-09-01T15:03:25;99839.72;;;24.89;29.86
16100;BME280;8154;50.830;12.082;2022-09-01T15:06:14;99839.53;;;24.91;29.92
16100;BME280;8154;50.830;12.082;2022-09-01T15:08:59;99836.25;;;24.89;29.53
16100;BME280;8154;50.830;12.082;2022-09-01T15:11:45;99822.69;;;24.90;29.58
16100;BME280;8154;50.830;12.082;2022-09-01T15:14:31;99828.81;;;24.84;30.14
16100;BME280;8154;50.830;12.082;2022-09-01T15:17:15;99830.66;;;24.84;29.46
16100;BME280;8154;50.830;12.082;2022-09-01T15:20:00;99823.47;;;24.84;29.85
16100;BME280;8154;50.830;12.082;2022-09-01T15:23:05;99826.56;;;24.88;29.31
16100;BME280;8154;50.830;12.082;2022-09-01T15:25:52;99818.72;;;24.86;29.94
16100;BME280;8154;50.830;12.082;2022-09-01T15:28:37;99816.06;;;24.86;29.63
16100;BME280;8154;50.830;12.082;2022-09-01T15:31:22;99816.25;;;24.85;29.44
16100;BME280;8154;50.830;12.082;2022-09-01T15:34:08;99806.19;;;24.87;29.78
16100;BME280;8154;50.830;12.082;2022-09-01T15:36:52;99814.16;;;24.80;29.75
16100;BME280;8154;50.830;12.082;2022-09-01T15:39:37;99805.75;;;24.83;29.34
16100;BME280;8154;50.830;12.082;2022-09-01T15:42:21;99805.75;;;24.83;29.34
16100;BME280;8154;50.830;12.082;2022-09-01T15:45:12;99803.09;;;24.83;28.89
16100;BME280;8154;50.830;12.082;2022-09-01T15:47:57;99810.50;;;24.88;28.34
16100;BME280;8154;50.830;12.082;2022-09-01T15:50:42;99807.03;;;24.87;28.32